EW0139 Weather Reports


Display with metric or nautical units.
time (UTC)temp
F
wind
direction
speed
MPH
gust
MPH
rain 1hr
in
rain 24hr
in
rain mn
in
humidity
%
barometer
mb
20201201160537 33 313 18.0 24.0 0.00 0.00 0.00 73 1018.3
20201201155549 33 321 17.0 22.0 0.00 0.00 0.00 74 1017.8
20201201154540 33 333 17.0 22.0 0.00 0.00 0.00 75 1017.8
20201201153540 33 331 15.0 21.0 0.00 0.00 0.00 76 1017.7
20201201152537 33 316 14.0 24.0 0.00 0.00 0.00 76 1017.6
20201201151538 33 327 14.0 20.0 0.00 0.00 0.00 76 1017.6
20201201150541 33 320 14.0 20.0 0.00 0.00 0.00 75 1017.3
20201201145537 33 325 14.0 19.0 0.00 0.00 0.00 75 1016.9
20201201144545 33 323 14.0 20.0 0.00 0.00 0.00 73 1016.9
20201201143555 33 333 16.0 22.0 0.00 0.00 0.00 72 1016.7
20201201142532 34 338 15.0 25.0 0.00 0.00 0.00 71 1016.0
20201201141533 34 328 18.0 21.0 0.00 0.00 0.00 71 1016.0
20201201140553 34 321 14.0 21.0 0.00 0.00 0.00 72 1015.8
20201201135550 34 314 11.0 16.0 0.00 0.00 0.00 73 1015.4
20201201134859 34 321 11.0 18.0 0.00 0.00 0.00 74 1015.4
20201201133549 34 330 10.0 14.0 0.00 0.00 0.00 77 1015.2
20201201132546 33 333 8.0 13.0 0.00 0.00 0.00 80 1014.7
20201201131545 33 340 10.0 16.0 0.00 0.00 0.00 83 1014.7
20201201130544 33 342 15.0 24.0 0.00 0.00 0.00 85 1015.1
20201201125546 33 331 21.0 31.0 0.00 0.00 0.00 85 1014.7
20201201124545 34 341 20.0 28.0 0.00 0.00 0.00 80 1014.7
20201201123543 34 334 21.0 30.0 0.00 0.00 0.00 79 1014.1
20201201122543 32 328 16.0 21.0 0.00 0.00 0.00 82 1013.2
20201201121539 29 310 10.0 13.0 0.00 0.00 0.00 82 1013.2
20201201120539 28 320 8.0 12.0 0.00 0.00 0.00 82 1012.6
20201201115542 27 320 7.0 11.0 0.00 0.00 0.00 82 1012.4
20201201114536 26 324 5.0 8.0 0.00 0.00 0.00 81 1012.4
20201201113537 26 324 7.0 11.0 0.00 0.00 0.00 81 1011.9
20201201112536 26 321 9.0 12.0 0.00 0.00 0.00 81 1011.3
20201201111551 25 310 9.0 12.0 0.00 0.00 0.00 81 1011.3
20201201110548 24 324 7.0 11.0 0.00 0.00 0.00 81 1011.4
20201201105545 23 324 6.0 8.0 0.00 0.00 0.00 81 1010.1
20201201104549 22 60 2.0 4.0 0.00 0.00 0.00 80 1010.1
20201201103546 23 60 2.0 5.0 0.00 0.00 0.00 78 1010.6
20201201102541 24 60 3.0 5.0 0.00 0.00 0.00 79 1010.0
20201201101538 23 69 2.0 3.0 0.00 0.00 0.00 82 1010.0
20201201100533 23 69 0.0 3.0 0.00 0.00 0.00 78 1009.5
20201201095555 25 69 1.0 2.0 0.00 0.00 0.00 81 1009.1
20201201094547 25 69 0.0 3.0 0.00 0.00 0.00 81 1009.1
20201201093544 25 70 0.0 3.0 0.00 0.00 0.00 84 1008.9
20201201092540 24 70 0.0 2.0 0.00 0.00 0.00 85 1008.9
20201201091541 23 70 0.0 0.0 0.00 0.00 0.00 85 1008.9
20201201090538 23 70 0.0 0.0 0.00 0.00 0.00 86 1008.6
20201201085552 23 70 0.0 0.0 0.00 0.00 0.00 86 1008.2
20201201084550 23 70 0.0 0.0 0.00 0.00 0.00 86 1008.2
20201201083544 22 70 0.0 0.0 0.00 0.00 0.00 88 1008.3
20201201082542 21 70 0.0 0.0 0.00 0.00 0.00 87 1008.5
20201201081538 20 70 0.0 3.0 0.00 0.00 0.00 86 1008.5
20201201080537 19 70 0.0 0.0 0.00 0.00 0.00 86 1007.7
20201201075551 19 70 0.0 0.0 0.00 0.00 0.00 85 1007.4
20201201074549 19 70 0.0 0.0 0.00 0.00 0.00 85 1007.4
20201201073615 18 70 0.0 3.0 0.00 0.00 0.00 85 1007.4
20201201072615 18 70 0.0 2.0 0.00 0.00 0.00 84 1007.4
20201201071614 19 70 0.0 0.0 0.00 0.00 0.00 84 1007.4
20201201070611 19 70 0.0 1.0 0.00 0.00 0.00 84 1007.5
20201201065611 20 70 0.0 1.0 0.00 0.00 0.00 84 1007.5
20201201064607 20 70 1.0 3.0 0.00 0.00 0.00 85 1007.5
20201201063605 19 70 2.0 5.0 0.00 0.00 0.00 83 1007.3
20201201062622 19 70 0.0 0.0 0.00 0.00 0.00 83 1007.0
20201201061606 20 70 1.0 3.0 0.00 0.00 0.00 83 1007.0
20201201060609 20 70 1.0 3.0 0.00 0.00 0.00 84 1007.2
20201201055608 21 70 1.0 2.0 0.00 0.00 0.00 83 1006.4
20201201054606 21 70 0.0 3.0 0.00 0.00 0.00 83 1006.4
20201201053623 21 70 3.0 5.0 0.00 0.00 0.00 82 1006.3
20201201052623 22 70 1.0 2.0 0.00 0.00 0.00 82 1006.3
20201201051622 21 70 0.0 2.0 0.00 0.00 0.00 82 1006.3
20201201050621 21 70 1.0 2.0 0.00 0.00 0.00 81 1006.3
20201201045621 22 70 0.0 0.0 0.00 0.00 0.00 82 1006.1
20201201044621 21 70 0.0 0.0 0.00 0.00 0.00 81 1006.1
20201201043619 22 70 0.0 0.0 0.00 0.00 0.00 80 1005.9
20201201042615 22 70 0.0 0.0 0.00 0.00 0.00 79 1005.8
20201201041614 22 70 1.0 2.0 0.00 0.00 0.00 79 1005.8
20201201040615 23 70 0.0 0.0 0.00 0.00 0.00 79 1006.1
20201201035617 23 70 0.0 1.0 0.00 0.00 0.00 79 1005.8
20201201034615 23 70 0.0 0.0 0.00 0.00 0.00 79 1005.8
20201201033613 24 70 0.0 0.0 0.00 0.00 0.00 80 1005.7
20201201032628 23 70 0.0 0.0 0.00 0.00 0.00 81 1005.2
20201201031624 23 70 0.0 2.0 0.00 0.00 0.00 81 1005.2
20201201030620 22 70 0.0 3.0 0.00 0.00 0.00 81 1004.7
20201201025620 22 70 0.0 2.0 0.00 0.00 0.00 81 1004.5
20201201024618 21 70 0.0 2.0 0.00 0.00 0.00 80 1004.5
20201201023619 21 70 2.0 3.0 0.00 0.00 0.00 81 1004.4
20201201022619 21 70 1.0 3.0 0.00 0.00 0.00 79 1003.9
20201201021617 21 70 2.0 3.0 0.00 0.00 0.00 79 1003.9
20201201020614 22 70 0.0 3.0 0.00 0.00 0.00 77 1004.0
20201201015612 23 70 0.0 3.0 0.00 0.00 0.00 76 1003.8
20201201014618 24 70 1.0 6.0 0.00 0.00 0.00 75 1003.8
20201201013616 25 77 5.0 5.0 0.00 0.00 0.00 78 1003.3
20201201012615 25 94 0.0 2.0 0.00 0.00 0.00 78 1003.3
20201201011614 24 94 1.0 5.0 0.00 0.00 0.00 78 1003.3
20201201010622 25 94 2.0 3.0 0.00 0.00 0.00 77 1003.0
20201201005621 26 94 0.0 0.0 0.00 0.00 0.00 77 1003.0
20201201004617 26 94 0.0 0.0 0.00 0.00 0.00 76 1003.0
20201201003614 27 94 0.0 0.0 0.00 0.00 0.00 74 1003.0
20201201002614 28 94 0.0 0.0 0.00 0.00 0.00 73 1002.9
20201201001618 28 94 0.0 0.0 0.00 0.00 0.00 71 1002.9
20201201000619 28 94 0.0 1.0 0.00 0.00 0.00 70 1003.6
20201130235617 30 94 2.0 3.0 0.00 0.00 0.00 66 1003.2
20201130234622 32 94 0.0 0.0 0.00 0.00 0.00 64 1003.2
20201130233619 33 94 0.0 0.0 0.00 0.00 0.00 62 1003.0
20201130232622 34 94 1.0 2.0 0.00 0.00 0.00 62 1002.8
20201130231618 35 94 0.0 2.0 0.00 0.00 0.00 61 1002.8
20201130230617 36 94 1.0 3.0 0.00 0.00 0.00 60 1002.6
20201130225620 37 94 2.0 7.0 0.00 0.00 0.00 59 1002.6
20201130224619 37 97 6.0 7.0 0.00 0.00 0.00 58 1002.6
20201130223618 38 108 3.0 6.0 0.00 0.00 0.00 56 1002.6
20201130222617 39 117 2.0 5.0 0.00 0.00 0.00 56 1002.9
20201130221601 38 117 1.0 3.0 0.00 0.00 0.00 56 1002.9
20201130220603 39 117 1.0 2.0 0.00 0.00 0.00 54 1003.6
20201130215603 39 117 1.0 3.0 0.00 0.00 0.00 53 1003.6
20201130214621 40 119 0.0 3.0 0.00 0.00 0.00 54 1003.6
20201130213621 40 119 3.0 3.0 0.00 0.00 0.00 52 1003.9
20201130212607 40 124 1.0 2.0 0.00 0.00 0.00 53 1004.1
20201130211607 40 124 0.0 5.0 0.00 0.00 0.00 53 1004.1
20201130210610 40 124 2.0 6.0 0.00 0.00 0.00 51 1003.8
20201130205612 40 125 1.0 6.0 0.00 0.00 0.00 50 1004.2
20201130204616 41 126 2.0 6.0 0.00 0.00 0.00 49 1004.2
20201130203618 41 125 2.0 8.0 0.00 0.00 0.00 49 1004.3
20201130202618 40 125 5.0 7.0 0.00 0.00 0.00 50 1004.8
20201130201619 40 121 5.0 8.0 0.00 0.00 0.00 50 1004.8
20201130200615 40 143 7.0 10.0 0.00 0.00 0.00 51 1004.9
20201130195606 40 138 1.0 9.0 0.00 0.00 0.00 53 1005.3
20201130194605 39 155 6.0 10.0 0.00 0.00 0.00 52 1005.3
20201130193606 39 124 3.0 7.0 0.00 0.00 0.00 53 1005.8
20201130192612 39 133 4.0 7.0 0.00 0.00 0.00 55 1006.1
20201130191615 38 135 5.0 10.0 0.00 0.00 0.00 56 1006.1
20201130190611 38 149 4.0 8.0 0.00 0.00 0.00 57 1006.6
20201130185610 38 131 4.0 8.0 0.00 0.00 0.00 59 1006.7
20201130184607 37 121 2.0 7.0 0.00 0.00 0.00 61 1006.7
20201130183613 37 119 5.0 7.0 0.00 0.00 0.00 61 1007.0
20201130182611 36 122 5.0 7.0 0.00 0.00 0.00 64 1007.3
20201130181611 36 98 4.0 7.0 0.00 0.00 0.00 65 1007.3
20201130180610 36 109 3.0 6.0 0.00 0.00 0.00 66 1008.2
20201130175618 35 133 4.0 10.0 0.00 0.00 0.00 67 1008.4
20201130174620 34 126 6.0 7.0 0.00 0.00 0.00 66 1008.4
20201130173616 34 125 3.0 6.0 0.00 0.00 0.00 68 1009.0
20201130172621 33 124 3.0 8.0 0.00 0.00 0.00 69 1008.3